sensor_id;sensor_type;location;lat;lon;timestamp;pressure;altitude;pressure_sealevel;temperature;humidity
62789;BME280;66401;42.016;21.454;2023-02-23T00:01:25;98107.91;;;11.36;44.93
62789;BME280;66401;42.016;21.454;2023-02-23T00:03:54;98104.31;;;11.10;45.76
62789;BME280;66401;42.016;21.454;2023-02-23T00:06:20;98112.13;;;11.24;45.90
62789;BME280;66401;42.016;21.454;2023-02-23T00:08:46;98112.31;;;11.29;44.68
62789;BME280;66401;42.016;21.454;2023-02-23T00:11:17;98091.84;;;10.99;45.35
62789;BME280;66401;42.016;21.454;2023-02-23T00:13:44;98117.09;;;10.92;46.50
62789;BME280;66401;42.016;21.454;2023-02-23T00:16:24;98111.47;;;10.95;45.90
62789;BME280;66401;42.016;21.454;2023-02-23T00:18:53;98114.69;;;10.97;45.50
62789;BME280;66401;42.016;21.454;2023-02-23T00:21:36;98113.09;;;11.03;45.30
62789;BME280;66401;42.016;21.454;2023-02-23T00:24:08;98113.09;;;10.96;45.74
62789;BME280;66401;42.016;21.454;2023-02-23T00:26:35;98103.44;;;10.90;45.54
62789;BME280;66401;42.016;21.454;2023-02-23T00:29:03;98117.69;;;10.94;45.56
62789;BME280;66401;42.016;21.454;2023-02-23T00:31:29;98124.63;;;10.67;46.46
62789;BME280;66401;42.016;21.454;2023-02-23T00:33:57;98120.97;;;10.48;46.70
62789;BME280;66401;42.016;21.454;2023-02-23T00:36:26;98104.97;;;10.58;46.48
62789;BME280;66401;42.016;21.454;2023-02-23T00:38:53;98118.41;;;10.62;46.21
62789;BME280;66401;42.016;21.454;2023-02-23T00:41:20;98109.00;;;10.67;46.12
62789;BME280;66401;42.016;21.454;2023-02-23T00:43:56;98113.16;;;10.48;46.86
62789;BME280;66401;42.016;21.454;2023-02-23T00:46:24;98115.31;;;10.38;46.41
62789;BME280;66401;42.016;21.454;2023-02-23T00:48:51;98115.53;;;10.43;46.50
62789;BME280;66401;42.016;21.454;2023-02-23T00:51:20;98099.50;;;10.40;46.52
62789;BME280;66401;42.016;21.454;2023-02-23T00:53:46;98115.31;;;10.38;47.05
62789;BME280;66401;42.016;21.454;2023-02-23T00:56:14;98098.03;;;10.30;46.98
62789;BME280;66401;42.016;21.454;2023-02-23T00:58:41;98097.69;;;10.40;46.63
62789;BME280;66401;42.016;21.454;2023-02-23T01:01:08;98100.63;;;10.24;47.34
62789;BME280;66401;42.016;21.454;2023-02-23T01:03:35;98100.69;;;10.02;48.29
62789;BME280;66401;42.016;21.454;2023-02-23T01:06:03;98098.72;;;10.04;47.79
62789;BME280;66401;42.016;21.454;2023-02-23T01:08:30;98087.66;;;10.02;47.58
62789;BME280;66401;42.016;21.454;2023-02-23T01:10:56;98103.28;;;10.37;47.13
62789;BME280;66401;42.016;21.454;2023-02-23T01:13:22;98095.94;;;10.13;47.68
62789;BME280;66401;42.016;21.454;2023-02-23T01:15:48;98101.47;;;9.96;47.97
62789;BME280;66401;42.016;21.454;2023-02-23T01:18:15;98106.47;;;9.98;48.10
62789;BME280;66401;42.016;21.454;2023-02-23T01:20:42;98107.13;;;10.07;48.12
62789;BME280;66401;42.016;21.454;2023-02-23T01:23:10;98090.97;;;9.83;48.00
62789;BME280;66401;42.016;21.454;2023-02-23T01:25:36;98089.00;;;9.85;47.98
62789;BME280;66401;42.016;21.454;2023-02-23T01:28:02;98076.25;;;9.97;47.67
62789;BME280;66401;42.016;21.454;2023-02-23T01:30:28;98098.31;;;10.08;47.80
62789;BME280;66401;42.016;21.454;2023-02-23T01:32:54;98102.47;;;9.95;48.04
62789;BME280;66401;42.016;21.454;2023-02-23T01:35:19;98097.41;;;9.87;48.39
62789;BME280;66401;42.016;21.454;2023-02-23T01:37:45;98099.41;;;9.85;48.64
62789;BME280;66401;42.016;21.454;2023-02-23T01:40:15;98111.41;;;9.86;48.96
62789;BME280;66401;42.016;21.454;2023-02-23T01:42:44;98098.00;;;9.89;48.38
62789;BME280;66401;42.016;21.454;2023-02-23T01:45:31;98096.00;;;9.91;48.04
62789;BME280;66401;42.016;21.454;2023-02-23T01:48:03;98099.06;;;9.95;48.29
62789;BME280;66401;42.016;21.454;2023-02-23T01:50:36;98091.63;;;9.64;48.38
62789;BME280;66401;42.016;21.454;2023-02-23T01:53:04;98110.84;;;9.63;49.58
62789;BME280;66401;42.016;21.454;2023-02-23T01:55:30;98105.28;;;9.66;48.37
62789;BME280;66401;42.016;21.454;2023-02-23T01:58:03;98097.22;;;9.61;48.73
62789;BME280;66401;42.016;21.454;2023-02-23T02:00:30;98094.88;;;9.66;48.87
62789;BME280;66401;42.016;21.454;2023-02-23T02:03:03;98099.16;;;9.80;48.59
62789;BME280;66401;42.016;21.454;2023-02-23T02:05:35;98100.34;;;9.50;48.88
62789;BME280;66401;42.016;21.454;2023-02-23T02:08:02;98081.56;;;9.26;50.12
62789;BME280;66401;42.016;21.454;2023-02-23T02:10:30;98105.00;;;9.33;49.71
62789;BME280;66401;42.016;21.454;2023-02-23T02:13:06;98098.91;;;9.19;50.19
62789;BME280;66401;42.016;21.454;2023-02-23T02:15:41;98097.78;;;9.28;50.67
62789;BME280;66401;42.016;21.454;2023-02-23T02:21:42;98105.44;;;9.36;50.54
62789;BME280;66401;42.016;21.454;2023-02-23T02:27:22;98115.69;;;9.66;49.27
62789;BME280;66401;42.016;21.454;2023-02-23T02:33:12;98112.81;;;9.61;49.10
62789;BME280;66401;42.016;21.454;2023-02-23T02:38:59;98122.91;;;9.70;48.72
62789;BME280;66401;42.016;21.454;2023-02-23T02:46:37;98130.69;;;9.42;49.31
62789;BME280;66401;42.016;21.454;2023-02-23T02:54:40;98128.28;;;9.41;49.33
62789;BME280;66401;42.016;21.454;2023-02-23T02:57:09;98124.25;;;9.38;49.62
62789;BME280;66401;42.016;21.454;2023-02-23T02:59:46;98114.22;;;9.35;49.33
62789;BME280;66401;42.016;21.454;2023-02-23T03:02:32;98126.59;;;9.33;49.77
62789;BME280;66401;42.016;21.454;2023-02-23T03:05:19;98113.38;;;9.28;49.69
62789;BME280;66401;42.016;21.454;2023-02-23T03:08:10;98131.81;;;9.33;49.60
62789;BME280;66401;42.016;21.454;2023-02-23T03:11:02;98130.25;;;9.39;49.45
62789;BME280;66401;42.016;21.454;2023-02-23T03:17:04;98126.59;;;9.33;49.11
62789;BME280;66401;42.016;21.454;2023-02-23T03:19:58;98125.31;;;9.23;49.60
62789;BME280;66401;42.016;21.454;2023-02-23T03:22:56;98135.22;;;9.12;50.10
62789;BME280;66401;42.016;21.454;2023-02-23T03:25:55;98124.41;;;9.09;50.22
62789;BME280;66401;42.016;21.454;2023-02-23T03:28:58;98134.28;;;9.20;49.96
62789;BME280;66401;42.016;21.454;2023-02-23T03:32:14;98132.88;;;9.17;50.00
62789;BME280;66401;42.016;21.454;2023-02-23T03:38:07;98137.72;;;8.84;50.57
62789;BME280;66401;42.016;21.454;2023-02-23T03:40:54;98136.69;;;8.64;50.42
62789;BME280;66401;42.016;21.454;2023-02-23T03:43:47;98139.91;;;8.66;50.64
62789;BME280;66401;42.016;21.454;2023-02-23T03:46:34;98133.16;;;8.50;51.54
62789;BME280;66401;42.016;21.454;2023-02-23T03:49:21;98146.47;;;8.47;51.23
62789;BME280;66401;42.016;21.454;2023-02-23T03:52:21;98132.44;;;8.42;52.07
62789;BME280;66401;42.016;21.454;2023-02-23T03:55:12;98137.78;;;8.55;51.90
62789;BME280;66401;42.016;21.454;2023-02-23T03:57:59;98144.06;;;8.46;52.31
62789;BME280;66401;42.016;21.454;2023-02-23T04:00:46;98122.78;;;8.36;51.59
62789;BME280;66401;42.016;21.454;2023-02-23T04:03:33;98132.78;;;8.39;52.24
62789;BME280;66401;42.016;21.454;2023-02-23T04:06:23;98126.69;;;8.46;51.61
62789;BME280;66401;42.016;21.454;2023-02-23T04:09:08;98134.00;;;8.57;51.28
62789;BME280;66401;42.016;21.454;2023-02-23T04:15:10;98144.25;;;8.59;51.02
62789;BME280;66401;42.016;21.454;2023-02-23T04:17:38;98139.91;;;8.66;50.97
62789;BME280;66401;42.016;21.454;2023-02-23T04:20:04;98139.41;;;8.56;51.56
62789;BME280;66401;42.016;21.454;2023-02-23T04:22:31;98142.97;;;8.70;50.72
62789;BME280;66401;42.016;21.454;2023-02-23T04:24:56;98140.47;;;8.62;51.34
62789;BME280;66401;42.016;21.454;2023-02-23T04:27:22;98146.97;;;8.72;50.79
62789;BME280;66401;42.016;21.454;2023-02-23T04:29:47;98140.00;;;8.58;50.78
62789;BME280;66401;42.016;21.454;2023-02-23T04:32:16;98153.63;;;8.60;51.58
62789;BME280;66401;42.016;21.454;2023-02-23T04:34:42;98153.56;;;8.53;51.60
62789;BME280;66401;42.016;21.454;2023-02-23T04:37:08;98145.34;;;8.50;51.27
62789;BME280;66401;42.016;21.454;2023-02-23T04:39:34;98142.56;;;8.37;51.07
62789;BME280;66401;42.016;21.454;2023-02-23T04:42:00;98151.13;;;8.37;51.31
62789;BME280;66401;42.016;21.454;2023-02-23T04:44:25;98157.22;;;8.44;51.59
62789;BME280;66401;42.016;21.454;2023-02-23T04:46:51;98151.22;;;8.44;51.94
62789;BME280;66401;42.016;21.454;2023-02-23T04:49:17;98152.13;;;8.51;51.36
62789;BME280;66401;42.016;21.454;2023-02-23T04:51:42;98157.94;;;8.38;50.94
62789;BME280;66401;42.016;21.454;2023-02-23T04:54:08;98150.00;;;8.40;51.16
62789;BME280;66401;42.016;21.454;2023-02-23T04:56:33;98153.81;;;8.44;50.86
62789;BME280;66401;42.016;21.454;2023-02-23T04:58:59;98148.03;;;8.42;51.01
62789;BME280;66401;42.016;21.454;2023-02-23T05:01:25;98124.09;;;8.17;51.31
62789;BME280;66401;42.016;21.454;2023-02-23T05:03:51;98149.72;;;8.35;51.46
62789;BME280;66401;42.016;21.454;2023-02-23T05:06:17;98159.25;;;8.19;52.68
62789;BME280;66401;42.016;21.454;2023-02-23T05:08:43;98152.19;;;8.13;52.02
62789;BME280;66401;42.016;21.454;2023-02-23T05:11:10;98154.34;;;8.24;51.22
62789;BME280;66401;42.016;21.454;2023-02-23T05:13:35;98158.53;;;8.25;51.88
62789;BME280;66401;42.016;21.454;2023-02-23T05:16:01;98153.09;;;8.20;51.65
62789;BME280;66401;42.016;21.454;2023-02-23T05:18:26;98157.94;;;8.23;51.75
62789;BME280;66401;42.016;21.454;2023-02-23T05:20:53;98154.06;;;8.19;52.56
62789;BME280;66401;42.016;21.454;2023-02-23T05:23:25;98152.38;;;7.97;52.59
62789;BME280;66401;42.016;21.454;2023-02-23T05:25:50;98155.06;;;8.03;52.51
62789;BME280;66401;42.016;21.454;2023-02-23T05:28:16;98153.88;;;8.06;52.84
62789;BME280;66401;42.016;21.454;2023-02-23T05:30:41;98162.22;;;8.16;52.29
62789;BME280;66401;42.016;21.454;2023-02-23T05:33:07;98169.28;;;8.22;52.38
62789;BME280;66401;42.016;21.454;2023-02-23T05:35:33;98172.88;;;8.21;52.06
62789;BME280;66401;42.016;21.454;2023-02-23T05:37:59;98175.28;;;8.23;51.91
62789;BME280;66401;42.016;21.454;2023-02-23T05:40:24;98177.78;;;8.16;52.91
62789;BME280;66401;42.016;21.454;2023-02-23T05:42:50;98171.25;;;8.20;51.85
62789;BME280;66401;42.016;21.454;2023-02-23T05:45:15;98174.75;;;8.13;53.21
62789;BME280;66401;42.016;21.454;2023-02-23T05:47:41;98184.31;;;8.12;52.55
62789;BME280;66401;42.016;21.454;2023-02-23T05:50:08;98183.88;;;8.23;52.02
62789;BME280;66401;42.016;21.454;2023-02-23T05:52:40;98185.72;;;8.00;53.32
62789;BME280;66401;42.016;21.454;2023-02-23T05:55:08;98192.78;;;7.91;53.22
62789;BME280;66401;42.016;21.454;2023-02-23T05:57:34;98198.16;;;8.04;53.08
62789;BME280;66401;42.016;21.454;2023-02-23T06:00:00;98194.22;;;8.09;53.10
62789;BME280;66401;42.016;21.454;2023-02-23T06:02:25;98199.88;;;8.12;53.27
62789;BME280;66401;42.016;21.454;2023-02-23T06:04:51;98194.69;;;8.12;53.38
62789;BME280;66401;42.016;21.454;2023-02-23T06:07:17;98198.97;;;8.20;52.89
62789;BME280;66401;42.016;21.454;2023-02-23T06:09:42;98206.97;;;8.33;52.40
62789;BME280;66401;42.016;21.454;2023-02-23T06:12:08;98218.16;;;8.33;52.03
62789;BME280;66401;42.016;21.454;2023-02-23T06:14:33;98209.19;;;8.21;52.85
62789;BME280;66401;42.016;21.454;2023-02-23T06:16:59;98219.91;;;8.18;52.39
62789;BME280;66401;42.016;21.454;2023-02-23T06:19:25;98219.66;;;8.28;52.56
62789;BME280;66401;42.016;21.454;2023-02-23T06:21:50;98215.72;;;8.32;52.18
62789;BME280;66401;42.016;21.454;2023-02-23T06:24:18;98216.19;;;8.36;52.47
62789;BME280;66401;42.016;21.454;2023-02-23T06:26:44;98224.31;;;8.32;53.32
62789;BME280;66401;42.016;21.454;2023-02-23T06:29:10;98222.25;;;8.13;53.37
62789;BME280;66401;42.016;21.454;2023-02-23T06:31:36;98225.66;;;8.28;54.03
62789;BME280;66401;42.016;21.454;2023-02-23T06:34:02;98227.19;;;8.38;53.78
62789;BME280;66401;42.016;21.454;2023-02-23T06:36:28;98224.16;;;8.49;52.86
62789;BME280;66401;42.016;21.454;2023-02-23T06:38:57;98220.75;;;8.48;52.22
62789;BME280;66401;42.016;21.454;2023-02-23T06:41:24;98223.72;;;8.60;52.65
62789;BME280;66401;42.016;21.454;2023-02-23T06:43:49;98229.44;;;8.70;52.26
62789;BME280;66401;42.016;21.454;2023-02-23T06:46:16;98200.78;;;8.49;53.00
62789;BME280;66401;42.016;21.454;2023-02-23T06:48:42;98220.22;;;8.68;51.92
62789;BME280;66401;42.016;21.454;2023-02-23T06:51:08;98219.03;;;8.85;51.89
62789;BME280;66401;42.016;21.454;2023-02-23T06:53:34;98222.44;;;8.85;52.31
62789;BME280;66401;42.016;21.454;2023-02-23T06:55:59;98222.63;;;8.99;51.51
62789;BME280;66401;42.016;21.454;2023-02-23T06:58:25;98220.16;;;9.12;51.45
62789;BME280;66401;42.016;21.454;2023-02-23T07:00:54;98221.53;;;9.08;52.28
62789;BME280;66401;42.016;21.454;2023-02-23T07:03:22;98219.72;;;9.08;51.81
62789;BME280;66401;42.016;21.454;2023-02-23T07:05:47;98223.97;;;9.16;51.45
62789;BME280;66401;42.016;21.454;2023-02-23T07:08:15;98218.63;;;9.17;51.45
62789;BME280;66401;42.016;21.454;2023-02-23T07:10:41;98213.72;;;9.08;52.51
62789;BME280;66401;42.016;21.454;2023-02-23T07:13:06;98202.16;;;8.96;53.16
62789;BME280;66401;42.016;21.454;2023-02-23T07:15:34;98228.66;;;9.06;52.75
62789;BME280;66401;42.016;21.454;2023-02-23T07:18:00;98223.38;;;9.14;52.86
62789;BME280;66401;42.016;21.454;2023-02-23T07:20:25;98230.44;;;9.20;52.67
62789;BME280;66401;42.016;21.454;2023-02-23T07:22:50;98225.06;;;9.22;52.28
62789;BME280;66401;42.016;21.454;2023-02-23T07:25:17;98230.22;;;9.36;52.20
62789;BME280;66401;42.016;21.454;2023-02-23T07:27:43;98225.88;;;9.43;52.47
62789;BME280;66401;42.016;21.454;2023-02-23T07:30:10;98217.75;;;9.53;51.57
62789;BME280;66401;42.016;21.454;2023-02-23T07:32:36;98229.22;;;9.59;51.15
62789;BME280;66401;42.016;21.454;2023-02-23T07:35:02;98217.22;;;9.58;50.99
62789;BME280;66401;42.016;21.454;2023-02-23T07:37:28;98228.34;;;9.73;51.35
62789;BME280;66401;42.016;21.454;2023-02-23T07:39:54;98229.47;;;9.85;51.37
62789;BME280;66401;42.016;21.454;2023-02-23T07:42:19;98221.66;;;10.13;51.14
62789;BME280;66401;42.016;21.454;2023-02-23T07:44:44;98218.22;;;10.34;50.46
62789;BME280;66401;42.016;21.454;2023-02-23T07:47:10;98222.75;;;11.01;49.55
62789;BME280;66401;42.016;21.454;2023-02-23T07:49:36;98214.09;;;11.82;46.27
62789;BME280;66401;42.016;21.454;2023-02-23T07:52:01;98217.44;;;13.06;43.30
62789;BME280;66401;42.016;21.454;2023-02-23T07:54:27;98229.09;;;14.30;40.40
62789;BME280;66401;42.016;21.454;2023-02-23T07:56:52;98223.81;;;14.92;39.35
62789;BME280;66401;42.016;21.454;2023-02-23T07:59:18;98218.28;;;15.71;36.31
62789;BME280;66401;42.016;21.454;2023-02-23T08:01:44;98222.22;;;16.27;35.77
62789;BME280;66401;42.016;21.454;2023-02-23T08:04:09;98219.94;;;17.06;35.27
62789;BME280;66401;42.016;21.454;2023-02-23T08:06:35;98223.88;;;17.78;34.08
62789;BME280;66401;42.016;21.454;2023-02-23T08:09:02;98227.63;;;17.82;32.75
62789;BME280;66401;42.016;21.454;2023-02-23T08:11:28;98222.19;;;18.05;32.37
62789;BME280;66401;42.016;21.454;2023-02-23T08:13:55;98223.84;;;19.10;31.21
62789;BME280;66401;42.016;21.454;2023-02-23T08:16:31;98220.38;;;19.32;30.15
62789;BME280;66401;42.016;21.454;2023-02-23T08:18:58;98216.25;;;20.00;30.03
62789;BME280;66401;42.016;21.454;2023-02-23T08:21:24;98223.72;;;20.13;29.81
62789;BME280;66401;42.016;21.454;2023-02-23T08:23:50;98208.72;;;20.66;28.16
62789;BME280;66401;42.016;21.454;2023-02-23T08:26:15;98213.47;;;21.98;27.05
62789;BME280;66401;42.016;21.454;2023-02-23T08:28:41;98210.56;;;21.59;27.47
62789;BME280;66401;42.016;21.454;2023-02-23T08:31:12;98208.44;;;23.07;24.84
62789;BME280;66401;42.016;21.454;2023-02-23T08:33:39;98213.22;;;22.05;26.41
62789;BME280;66401;42.016;21.454;2023-02-23T08:36:05;98215.88;;;22.10;27.33
62789;BME280;66401;42.016;21.454;2023-02-23T08:38:31;98209.66;;;23.69;24.33
62789;BME280;66401;42.016;21.454;2023-02-23T08:41:00;98209.22;;;24.92;22.48
62789;BME280;66401;42.016;21.454;2023-02-23T08:43:26;98213.13;;;24.27;23.14
62789;BME280;66401;42.016;21.454;2023-02-23T08:45:51;98216.34;;;24.24;23.42
62789;BME280;66401;42.016;21.454;2023-02-23T08:48:17;98212.25;;;24.08;23.98
62789;BME280;66401;42.016;21.454;2023-02-23T08:50:43;98211.53;;;23.68;23.76
62789;BME280;66401;42.016;21.454;2023-02-23T08:53:08;98191.88;;;23.64;24.69
62789;BME280;66401;42.016;21.454;2023-02-23T08:55:36;98203.22;;;25.05;22.44
62789;BME280;66401;42.016;21.454;2023-02-23T08:58:02;98202.38;;;22.01;26.12
62789;BME280;66401;42.016;21.454;2023-02-23T09:00:30;98196.41;;;24.22;23.79
62789;BME280;66401;42.016;21.454;2023-02-23T09:02:56;98203.50;;;22.75;25.56
62789;BME280;66401;42.016;21.454;2023-02-23T09:05:21;98199.25;;;22.74;25.79
62789;BME280;66401;42.016;21.454;2023-02-23T09:07:47;98202.03;;;23.52;24.21
62789;BME280;66401;42.016;21.454;2023-02-23T09:10:16;98196.84;;;23.37;24.51
62789;BME280;66401;42.016;21.454;2023-02-23T09:12:44;98194.78;;;24.74;23.19
62789;BME280;66401;42.016;21.454;2023-02-23T09:15:10;98203.91;;;24.92;23.10
62789;BME280;66401;42.016;21.454;2023-02-23T09:17:36;98192.84;;;25.41;22.37
62789;BME280;66401;42.016;21.454;2023-02-23T09:20:03;98198.75;;;25.89;21.41
62789;BME280;66401;42.016;21.454;2023-02-23T09:22:30;98203.44;;;25.98;20.75
62789;BME280;66401;42.016;21.454;2023-02-23T09:24:56;98200.31;;;26.37;20.94
62789;BME280;66401;42.016;21.454;2023-02-23T09:27:21;98189.25;;;26.71;20.62
62789;BME280;66401;42.016;21.454;2023-02-23T09:29:47;98187.66;;;25.50;22.58
62789;BME280;66401;42.016;21.454;2023-02-23T09:32:12;98184.22;;;25.82;21.67
62789;BME280;66401;42.016;21.454;2023-02-23T09:34:38;98189.75;;;25.85;21.69
62789;BME280;66401;42.016;21.454;2023-02-23T09:37:04;98195.38;;;26.30;20.81
62789;BME280;66401;42.016;21.454;2023-02-23T09:39:29;98189.41;;;26.33;21.01
62789;BME280;66401;42.016;21.454;2023-02-23T09:50:08;98173.34;;;27.16;19.74
62789;BME280;66401;42.016;21.454;2023-02-23T09:52:41;98177.97;;;26.74;20.56
62789;BME280;66401;42.016;21.454;2023-02-23T09:55:12;98168.91;;;26.47;21.10
62789;BME280;66401;42.016;21.454;2023-02-23T09:57:41;98170.28;;;26.59;20.73
62789;BME280;66401;42.016;21.454;2023-02-23T10:00:19;98173.97;;;25.89;21.18
62789;BME280;66401;42.016;21.454;2023-02-23T10:03:09;98171.63;;;26.84;20.95
62789;BME280;66401;42.016;21.454;2023-02-23T10:05:43;98165.34;;;28.14;19.68
62789;BME280;66401;42.016;21.454;2023-02-23T10:21:40;98148.69;;;28.83;19.05
62789;BME280;66401;42.016;21.454;2023-02-23T10:24:17;98146.47;;;28.19;19.90
62789;BME280;66401;42.016;21.454;2023-02-23T10:26:50;98137.28;;;28.51;19.58
62789;BME280;66401;42.016;21.454;2023-02-23T10:29:34;98134.03;;;29.67;18.66
62789;BME280;66401;42.016;21.454;2023-02-23T10:32:05;98126.72;;;30.31;17.80
62789;BME280;66401;42.016;21.454;2023-02-23T10:34:32;98105.06;;;30.78;16.87
62789;BME280;66401;42.016;21.454;2023-02-23T10:37:00;98123.53;;;30.59;17.65
62789;BME280;66401;42.016;21.454;2023-02-23T10:39:27;98115.94;;;27.89;19.39
62789;BME280;66401;42.016;21.454;2023-02-23T10:41:56;98087.59;;;26.12;21.61
62789;BME280;66401;42.016;21.454;2023-02-23T10:44:24;98099.94;;;27.66;20.45
62789;BME280;66401;42.016;21.454;2023-02-23T10:46:59;98076.47;;;28.60;19.63
62789;BME280;66401;42.016;21.454;2023-02-23T10:49:39;98090.22;;;29.02;19.54
62789;BME280;66401;42.016;21.454;2023-02-23T10:52:09;98077.44;;;29.16;19.00
62789;BME280;66401;42.016;21.454;2023-02-23T10:54:45;98084.22;;;30.25;18.59
62789;BME280;66401;42.016;21.454;2023-02-23T10:57:32;98079.41;;;29.62;19.24
62789;BME280;66401;42.016;21.454;2023-02-23T11:00:24;98065.38;;;30.33;18.29
62789;BME280;66401;42.016;21.454;2023-02-23T11:02:57;98070.66;;;28.93;19.27
62789;BME280;66401;42.016;21.454;2023-02-23T11:11:19;98050.31;;;28.57;19.87
62789;BME280;66401;42.016;21.454;2023-02-23T11:13:50;98043.03;;;27.52;20.96
62789;BME280;66401;42.016;21.454;2023-02-23T11:16:18;98043.34;;;25.05;22.95
62789;BME280;66401;42.016;21.454;2023-02-23T11:21:30;98035.00;;;24.55;23.87
62789;BME280;66401;42.016;21.454;2023-02-23T11:24:22;98025.84;;;23.99;24.85
62789;BME280;66401;42.016;21.454;2023-02-23T11:26:51;98020.34;;;23.91;25.10
62789;BME280;66401;42.016;21.454;2023-02-23T11:29:29;98026.50;;;23.33;26.12
62789;BME280;66401;42.016;21.454;2023-02-23T11:32:02;98015.09;;;24.28;23.97
62789;BME280;66401;42.016;21.454;2023-02-23T11:34:34;97998.47;;;24.18;24.67
62789;BME280;66401;42.016;21.454;2023-02-23T11:40:17;98010.94;;;24.60;24.30
62789;BME280;66401;42.016;21.454;2023-02-23T11:43:15;98001.53;;;25.19;24.03
62789;BME280;66401;42.016;21.454;2023-02-23T11:45:46;98005.50;;;24.33;23.84
62789;BME280;66401;42.016;21.454;2023-02-23T11:48:24;97994.69;;;24.24;25.10
62789;BME280;66401;42.016;21.454;2023-02-23T11:50:52;97994.34;;;25.01;24.34
62789;BME280;66401;42.016;21.454;2023-02-23T11:53:28;97987.03;;;24.93;24.60
62789;BME280;66401;42.016;21.454;2023-02-23T11:56:01;97991.31;;;26.81;22.01
62789;BME280;66401;42.016;21.454;2023-02-23T11:58:54;98003.84;;;25.39;22.28
62789;BME280;66401;42.016;21.454;2023-02-23T12:01:47;97985.41;;;24.40;24.10
62789;BME280;66401;42.016;21.454;2023-02-23T12:04:33;97988.22;;;25.33;23.49
62789;BME280;66401;42.016;21.454;2023-02-23T12:07:24;97982.69;;;25.57;23.12
62789;BME280;66401;42.016;21.454;2023-02-23T12:10:06;97971.63;;;25.36;22.93
62789;BME280;66401;42.016;21.454;2023-02-23T12:12:48;97970.38;;;25.61;22.90
62789;BME280;66401;42.016;21.454;2023-02-23T12:15:23;97983.81;;;25.69;22.22
62789;BME280;66401;42.016;21.454;2023-02-23T12:17:57;97976.16;;;24.70;23.62
62789;BME280;66401;42.016;21.454;2023-02-23T12:20:28;97975.34;;;24.89;24.04
62789;BME280;66401;42.016;21.454;2023-02-23T12:23:11;97972.53;;;24.47;24.30
62789;BME280;66401;42.016;21.454;2023-02-23T12:25:46;97965.44;;;24.00;25.65
62789;BME280;66401;42.016;21.454;2023-02-23T12:28:24;97966.13;;;23.39;25.46
62789;BME280;66401;42.016;21.454;2023-02-23T12:31:16;97954.66;;;22.02;26.99
62789;BME280;66401;42.016;21.454;2023-02-23T12:33:47;97932.78;;;21.71;26.83
62789;BME280;66401;42.016;21.454;2023-02-23T12:36:38;97964.97;;;22.14;27.73
62789;BME280;66401;42.016;21.454;2023-02-23T12:39:12;97966.09;;;21.92;27.83
62789;BME280;66401;42.016;21.454;2023-02-23T12:44:55;97952.34;;;21.80;28.00
62789;BME280;66401;42.016;21.454;2023-02-23T12:48:01;97952.66;;;21.68;28.04
62789;BME280;66401;42.016;21.454;2023-02-23T12:50:40;97947.78;;;20.65;28.94
62789;BME280;66401;42.016;21.454;2023-02-23T12:53:18;97941.63;;;20.24;30.21
62789;BME280;66401;42.016;21.454;2023-02-23T12:56:20;97952.63;;;19.80;31.49
62789;BME280;66401;42.016;21.454;2023-02-23T12:59:13;97952.41;;;20.07;31.24
62789;BME280;66401;42.016;21.454;2023-02-23T13:04:53;97939.25;;;20.22;30.97
62789;BME280;66401;42.016;21.454;2023-02-23T13:07:42;97946.66;;;20.30;30.74
62789;BME280;66401;42.016;21.454;2023-02-23T13:13:40;97944.03;;;20.36;29.86
62789;BME280;66401;42.016;21.454;2023-02-23T13:19:40;97937.72;;;21.08;29.89
62789;BME280;66401;42.016;21.454;2023-02-23T13:28:15;97932.97;;;21.05;29.56
62789;BME280;66401;42.016;21.454;2023-02-23T13:30:42;97925.56;;;20.66;30.54
62789;BME280;66401;42.016;21.454;2023-02-23T13:33:23;97929.00;;;20.56;30.68
62789;BME280;66401;42.016;21.454;2023-02-23T13:35:49;97923.72;;;20.46;30.48
62789;BME280;66401;42.016;21.454;2023-02-23T13:43:42;97932.91;;;20.28;30.40
62789;BME280;66401;42.016;21.454;2023-02-23T13:46:27;97927.78;;;19.86;31.11
62789;BME280;66401;42.016;21.454;2023-02-23T13:49:21;97928.38;;;19.98;31.05
62789;BME280;66401;42.016;21.454;2023-02-23T13:52:08;97925.66;;;19.83;31.31
62789;BME280;66401;42.016;21.454;2023-02-23T13:54:35;97920.06;;;19.69;31.18
62789;BME280;66401;42.016;21.454;2023-02-23T13:57:03;97932.81;;;19.30;32.43
62789;BME280;66401;42.016;21.454;2023-02-23T13:59:43;97927.00;;;19.33;32.29
62789;BME280;66401;42.016;21.454;2023-02-23T14:04:48;97909.94;;;19.04;32.29
62789;BME280;66401;42.016;21.454;2023-02-23T14:07:24;97919.25;;;19.16;32.42
62789;BME280;66401;42.016;21.454;2023-02-23T14:09:57;97922.09;;;19.10;32.64
62789;BME280;66401;42.016;21.454;2023-02-23T14:12:37;97920.84;;;18.80;32.85
62789;BME280;66401;42.016;21.454;2023-02-23T14:15:28;97929.72;;;19.01;33.31
62789;BME280;66401;42.016;21.454;2023-02-23T14:18:28;97932.91;;;19.03;32.76
62789;BME280;66401;42.016;21.454;2023-02-23T14:25:49;97928.81;;;19.28;33.06
62789;BME280;66401;42.016;21.454;2023-02-23T14:31:05;97901.72;;;18.63;34.08
62789;BME280;66401;42.016;21.454;2023-02-23T14:41:23;97923.47;;;18.75;34.33
62789;BME280;66401;42.016;21.454;2023-02-23T14:46:31;97923.63;;;18.64;34.02
62789;BME280;66401;42.016;21.454;2023-02-23T14:49:09;97923.94;;;18.40;34.26
62789;BME280;66401;42.016;21.454;2023-02-23T14:52:04;97926.72;;;18.28;34.73
62789;BME280;66401;42.016;21.454;2023-02-23T14:57:01;97924.69;;;18.09;35.61
62789;BME280;66401;42.016;21.454;2023-02-23T14:59:40;97923.03;;;18.02;36.03
62789;BME280;66401;42.016;21.454;2023-02-23T15:02:18;97919.75;;;17.90;35.31
62789;BME280;66401;42.016;21.454;2023-02-23T15:04:45;97919.25;;;17.93;35.47
62789;BME280;66401;42.016;21.454;2023-02-23T15:07:17;97918.69;;;17.91;35.31
62789;BME280;66401;42.016;21.454;2023-02-23T15:09:51;97928.69;;;17.89;35.17
62789;BME280;66401;42.016;21.454;2023-02-23T15:12:29;97922.31;;;17.85;35.50
62789;BME280;66401;42.016;21.454;2023-02-23T15:15:00;97923.94;;;17.86;35.63